Adrian, North Dakota
Current Conditions -  °F | °C
As of 8:56 AM on Thursday 23 Oct 2014 (Local Time) from KJMS Reporting Station
Clear Clear  
Wind Chill:   Ceiling: Unl
Heat Index:   Visibility: 10mi
Dew Point:   Wind: 7mph
Humidity: 74%   Direction: 260°W
Pressure: 29.91"   Gusts: NA
Location:  46.6526°N, 98.6214°W
Report Text: KJMS 231356Z AUTO 26006KT 10SM CLR 06/02 A2991 RMK AO2 SLP136 T00610017
Loading
Personal Weather Stations






























Interactive Weather Map
Tropical Storm Tracking
New forecast layout! Learn more

10-Day Weather Forecast

Advertisements
Track Severe Weather on mobile